This is the latest recevied weather packets stored in our database for station/object G4GJR. If no packets are shown the sender has not sent any weather packets the latest 10 day(s).
| Time | Temp. | Humidity | Pressure | Rain* | Wind** | Luminosity | Snow |
|---|---|---|---|---|---|---|---|
| 1777689904 | 11.11° C | 88% | 1018.3 hPa | 0 mm | - | - | - |
| 1777687204 | 12.22° C | 87% | 1018.5 hPa | 0 mm | - | - | - |
| 1777674606 | 15° C | 81% | 1019.7 hPa | 0 mm | - | - | - |
| 1777672804 | 15° C | 81% | 1019.8 hPa | 0 mm | - | - | - |
| 1777671904 | 15° C | 80% | 1019.8 hPa | 0 mm | - | - | - |
| 1777669204 | 16.11° C | 78% | 1019.6 hPa | 0 mm | - | - | - |
| 1777657504 | 22.22° C | 61% | 1018.2 hPa | 0 mm | - | - | - |
| 1777653004 | 25° C | 44% | 1018.1 hPa | 0 mm | - | - | - |
| 1777651204 | 25° C | 42% | 1018.1 hPa | 0 mm | - | - | - |
| 1777644904 | 25° C | 36% | 1018.8 hPa | 0 mm | - | - | - |
| 1777644004 | 25.56° C | 35% | 1018.9 hPa | 0 mm | - | - | - |
| 1777635004 | 23.33° C | 38% | 1019.8 hPa | 0 mm | - | - | - |
| 1777630504 | 21.11° C | 41% | 1020.4 hPa | 0 mm | - | - | - |
| 1777628704 | 20° C | 42% | 1020.7 hPa | 0 mm | - | - | - |
| 1777624204 | 17.78° C | 44% | 1021 hPa | 0 mm | - | - | - |
| 1777622403 | 16.11° C | 47% | 1020.9 hPa | 0 mm | - | - | - |
| 1777618804 | 13.33° C | 57% | 1020.8 hPa | 0 mm | - | - | - |
| 1777615204 | 7.22° C | 79% | 1020.8 hPa | 0 mm | - | - | - |
| 1777611604 | 5.56° C | 82% | 1020.6 hPa | 0 mm | - | - | - |
| 1777599004 | 7.22° C | 72% | 1021.3 hPa | 0 mm | - | - | - |
| 1777587304 | 10.56° C | 57% | 1021.8 hPa | 0 mm | - | - | - |
| 1777571105 | 19.44° C | 33% | 1021.3 hPa | 0 mm | - | - | - |
| 1777568403 | 20° C | 32% | 1021.4 hPa | 0 mm | - | - | - |
| 1777565704 | 21.11° C | 29% | 1021.2 hPa | 0 mm | - | - | - |
| 1777564804 | 21.11° C | 27% | 1021.2 hPa | 0 mm | - | - | - |
* Rain latest hour (hover to see other rain measurements)
** Current wind speed in m/s (hover to see current wind gust speed)